Time;durP1;ratioP1;P1;durP2;ratioP2;P2;SDS_P1;SDS_P2;PMS_P1;PMS_P2;Temp;Humidity;BMP_temperature;BMP_pressure;BME280_temperature;BME280_humidity;BME280_pressure;Samples;Min_cycle;Max_cycle;Signal;HPM_P1;HPM_P2
2022/09/03 00:00:27;;;;;;;7.72;4.82;;;23.90;57.70;;;;;;5048165;28;20454;-82
2022/09/03 00:03:37;;;;;;;7.47;4.70;;;23.90;57.60;;;;;;5036834;28;20564;-82
2022/09/03 00:06:06;;;;;;;6.40;4.70;;;23.80;57.60;;;;;;4957939;28;20034;-82
2022/09/03 00:08:44;;;;;;;8.52;4.97;;;23.70;58.10;;;;;;4966057;28;20552;-82
2022/09/03 00:11:13;;;;;;;6.22;4.47;;;23.70;58.30;;;;;;4974018;28;20134;-82
2022/09/03 00:13:44;;;;;;;6.22;4.50;;;23.50;58.60;;;;;;4958254;28;20031;-82
2022/09/03 00:16:14;;;;;;;7.22;4.72;;;23.60;58.10;;;;;;4957918;28;20019;-82
2022/09/03 00:18:48;;;;;;;7.47;4.82;;;23.70;57.70;;;;;;4957819;28;20588;-81
2022/09/03 00:21:21;;;;;;;6.80;4.45;;;23.70;57.50;;;;;;4969408;28;20050;-82
2022/09/03 00:23:49;;;;;;;7.60;4.40;;;23.80;57.40;;;;;;4967420;28;20039;-83
2022/09/03 00:26:26;;;;;;;7.75;4.47;;;23.70;57.50;;;;;;4957293;28;20081;-83
2022/09/03 00:29:02;;;;;;;9.02;4.38;;;23.80;57.50;;;;;;4957752;28;20126;-83
2022/09/03 00:31:35;;;;;;;10.20;4.80;;;23.80;57.50;;;;;;4973519;28;20027;-80
2022/09/03 00:34:22;;;;;;;7.57;4.97;;;23.80;57.40;;;;;;4972432;28;20035;-82
2022/09/03 00:36:48;;;;;;;9.65;4.30;;;23.80;57.30;;;;;;4991567;28;20080;-83
2022/09/03 00:39:24;;;;;;;6.57;4.93;;;23.70;57.80;;;;;;5033116;28;20091;-79
2022/09/03 00:42:12;;;;;;;6.97;4.60;;;23.60;57.60;;;;;;5054154;28;20083;-83
2022/09/03 00:44:53;;;;;;;5.88;4.70;;;23.60;57.60;;;;;;5052734;28;20032;-81
2022/09/03 00:47:50;;;;;;;8.98;5.18;;;23.50;57.50;;;;;;5054142;28;20033;-79
2022/09/03 00:50:32;;;;;;;5.95;4.68;;;23.40;58.10;;;;;;5053797;28;20487;-81
2022/09/03 00:53:06;;;;;;;6.80;4.75;;;23.30;58.00;;;;;;5052646;28;20021;-82
2022/09/03 00:56:01;;;;;;;11.57;5.03;;;23.30;58.00;;;;;;5032084;28;20075;-81
2022/09/03 00:58:36;;;;;;;10.85;5.13;;;23.30;58.00;;;;;;5049729;28;20455;-80
2022/09/03 01:01:12;;;;;;;7.10;5.18;;;23.30;58.00;;;;;;5041778;28;20044;-82
2022/09/03 01:03:53;;;;;;;6.53;4.60;;;23.30;57.90;;;;;;5047548;28;20469;-82
2022/09/03 01:06:33;;;;;;;6.28;4.70;;;23.30;58.20;;;;;;5046035;28;20025;-82
2022/09/03 01:09:10;;;;;;;7.25;4.80;;;23.20;58.20;;;;;;5023089;28;20388;-80
2022/09/03 01:11:58;;;;;;;7.25;4.68;;;23.30;58.10;;;;;;5031964;28;20032;-82
2022/09/03 01:14:47;;;;;;;7.00;4.32;;;23.30;58.20;;;;;;5035559;28;20058;-80
2022/09/03 01:17:19;;;;;;;10.13;4.82;;;23.20;58.20;;;;;;5035456;28;20057;-82
2022/09/03 01:20:09;;;;;;;6.78;4.75;;;23.20;58.20;;;;;;5035779;28;20516;-82
2022/09/03 01:22:46;;;;;;;6.43;5.00;;;23.20;58.20;;;;;;5020674;28;20488;-82
2022/09/03 01:25:33;;;;;;;7.22;4.95;;;23.20;58.20;;;;;;5035316;28;20032;-83
2022/09/03 01:28:19;;;;;;;7.68;4.32;;;23.20;58.10;;;;;;5050831;28;20537;-81
2022/09/03 01:31:10;;;;;;;8.25;4.65;;;23.20;57.90;;;;;;5035444;28;20475;-81
2022/09/03 01:33:41;;;;;;;;;;;23.10;57.90;;;;;;5053399;28;20048;-82
2022/09/03 01:36:33;;;;;;;8.68;4.95;;;23.10;58.00;;;;;;5048990;28;20378;-82
2022/09/03 01:39:02;;;;;;;7.18;4.78;;;23.00;57.90;;;;;;5053819;28;20029;-82
2022/09/03 01:45:06;;;;;;;11.38;5.18;;;22.90;58.50;;;;;;5051962;28;20048;-82
2022/09/03 01:47:33;;;;;;;5.93;4.40;;;22.80;58.50;;;;;;5034523;28;20036;-82
2022/09/03 01:50:16;;;;;;;7.53;4.07;;;22.40;59.80;;;;;;5034927;28;20365;-81
2022/09/03 01:53:04;;;;;;;7.30;4.20;;;22.10;60.50;;;;;;5034864;28;20040;-81
2022/09/03 01:55:55;;;;;;;5.97;4.47;;;22.10;60.70;;;;;;5037006;28;20064;-81
2022/09/03 01:58:30;;;;;;;7.05;5.03;;;22.30;59.70;;;;;;5051480;28;20029;-81
2022/09/03 02:01:04;;;;;;;8.13;5.25;;;22.50;58.90;;;;;;5031298;28;20502;-81
2022/09/03 02:03:43;;;;;;;8.10;5.07;;;22.50;59.10;;;;;;5050410;28;20033;-81
2022/09/03 02:06:10;;;;;;;9.48;5.03;;;22.60;58.90;;;;;;5035263;28;20494;-81
2022/09/03 02:08:36;;;;;;;7.43;4.40;;;22.70;58.80;;;;;;5052175;28;20040;-82
2022/09/03 02:11:05;;;;;;;7.22;5.07;;;22.70;58.60;;;;;;5034697;28;20025;-82
2022/09/03 02:13:39;;;;;;;7.97;5.40;;;22.80;58.50;;;;;;5054761;28;20036;-80
2022/09/03 02:16:30;;;;;;;7.50;5.13;;;22.90;58.20;;;;;;5050528;28;20057;-82
2022/09/03 02:19:00;;;;;;;5.72;4.70;;;23.00;58.10;;;;;;5037279;28;20032;-82
2022/09/03 02:21:31;;;;;;;6.72;5.43;;;23.00;57.90;;;;;;5056318;28;20056;-82
2022/09/03 02:23:57;;;;;;;7.80;5.20;;;22.90;58.00;;;;;;5028843;28;20242;-82
2022/09/03 02:26:24;;;;;;;7.00;5.38;;;22.80;57.90;;;;;;5038842;28;20125;-81
2022/09/03 02:28:51;;;;;;;7.40;4.97;;;22.80;58.10;;;;;;5039572;28;20032;-81
2022/09/03 02:31:18;;;;;;;7.38;5.07;;;22.70;59.00;;;;;;5038658;28;20445;-81
2022/09/03 02:33:46;;;;;;;7.60;5.30;;;22.60;58.40;;;;;;5048796;28;20582;-82
2022/09/03 02:36:15;;;;;;;9.60;5.40;;;22.40;58.60;;;;;;5038411;28;20151;-82
2022/09/03 02:38:43;;;;;;;6.85;5.45;;;22.30;59.10;;;;;;5057309;28;20465;-81
2022/09/03 02:41:13;;;;;;;7.65;4.47;;;22.30;59.20;;;;;;5037681;28;20040;-82
2022/09/03 02:43:51;;;;;;;9.10;5.28;;;22.30;58.90;;;;;;5037764;28;20021;-83
2022/09/03 02:46:21;;;;;;;6.75;4.40;;;22.40;58.70;;;;;;5038841;28;20506;-83
2022/09/03 02:48:47;;;;;;;6.70;4.50;;;22.40;59.20;;;;;;5036713;28;20029;-82
2022/09/03 02:51:12;;;;;;;7.20;4.60;;;22.20;60.00;;;;;;5055664;28;20057;-82
2022/09/03 02:53:38;;;;;;;8.50;5.65;;;22.20;60.00;;;;;;5037358;28;20032;-82
2022/09/03 02:56:04;;;;;;;8.65;5.38;;;22.40;59.10;;;;;;5038192;28;20094;-82
2022/09/03 02:58:32;;;;;;;7.35;4.90;;;22.40;58.20;;;;;;5037870;28;20028;-83
2022/09/03 03:00:59;;;;;;;7.05;5.53;;;22.40;58.40;;;;;;5035358;28;20087;-83
2022/09/03 03:03:24;;;;;;;6.53;5.05;;;22.40;58.30;;;;;;5053862;28;20032;-82
2022/09/03 03:05:54;;;;;;;7.10;4.53;;;22.40;58.00;;;;;;5053892;28;20032;-82
2022/09/03 03:08:24;;;;;;;5.68;4.18;;;22.40;58.00;;;;;;5038730;28;20025;-82
2022/09/03 03:10:57;;;;;;;8.68;4.75;;;22.40;57.80;;;;;;5026776;28;20075;-84
2022/09/03 03:13:24;;;;;;;8.20;4.80;;;22.20;58.90;;;;;;5038006;28;20491;-83
2022/09/03 03:15:49;;;;;;;5.85;4.50;;;22.10;59.50;;;;;;5055468;28;20040;-83
2022/09/03 03:18:16;;;;;;;8.80;4.85;;;22.10;59.60;;;;;;5054274;28;20403;-82
2022/09/03 03:20:42;;;;;;;6.25;4.85;;;22.10;59.70;;;;;;5037399;28;20074;-80
2022/09/03 03:23:08;;;;;;;8.40;5.10;;;22.30;59.40;;;;;;5036945;28;20120;-82
2022/09/03 03:25:38;;;;;;;6.28;4.40;;;22.40;58.20;;;;;;5037285;28;20025;-82
2022/09/03 03:28:05;;;;;;;8.55;4.93;;;22.50;57.90;;;;;;5038222;28;20041;-82
2022/09/03 03:30:31;;;;;;;8.40;5.10;;;22.40;58.10;;;;;;5054312;28;20025;-82
2022/09/03 03:32:57;;;;;;;6.88;5.20;;;22.40;58.40;;;;;;5054236;28;20036;-83
2022/09/03 03:35:24;;;;;;;7.32;5.03;;;22.40;58.20;;;;;;5037352;28;20029;-82
2022/09/03 03:37:50;;;;;;;7.22;5.07;;;22.40;57.80;;;;;;5037291;28;20041;-82
2022/09/03 03:40:16;;;;;;;6.53;5.38;;;22.10;57.90;;;;;;5037404;28;20048;-81
2022/09/03 03:42:41;;;;;;;7.00;4.78;;;22.00;58.20;;;;;;5037778;28;20025;-82
2022/09/03 03:45:08;;;;;;;8.82;5.50;;;21.80;58.40;;;;;;5054923;28;20488;-82
2022/09/03 03:47:35;;;;;;;9.45;6.15;;;21.60;58.90;;;;;;5056040;28;20024;-83
2022/09/03 03:50:02;;;;;;;7.32;5.13;;;21.60;58.90;;;;;;5035719;28;20128;-81
2022/09/03 03:52:28;;;;;;;16.15;4.70;;;21.70;58.70;;;;;;5034138;28;20427;-82
2022/09/03 03:54:54;;;;;;;8.75;5.40;;;21.80;58.70;;;;;;5034904;28;20530;-81
2022/09/03 03:57:20;;;;;;;7.15;4.47;;;21.70;59.40;;;;;;5053531;28;20112;-83
2022/09/03 03:59:46;;;;;;;7.80;4.85;;;21.90;59.00;;;;;;5051611;28;20029;-81
2022/09/03 04:02:13;;;;;;;9.35;5.28;;;21.90;58.40;;;;;;5050824;28;20096;-83
2022/09/03 04:04:38;;;;;;;27.13;6.55;;;22.00;58.40;;;;;;5043552;28;20036;-81
2022/09/03 04:07:04;;;;;;;9.38;4.85;;;22.00;58.20;;;;;;5020620;28;20026;-81
2022/09/03 04:09:30;;;;;;;7.28;4.82;;;22.10;58.00;;;;;;5030951;28;20024;-82
2022/09/03 04:11:56;;;;;;;7.10;4.65;;;22.10;58.10;;;;;;5037146;28;20021;-83
2022/09/03 04:14:23;;;;;;;7.50;4.90;;;22.20;57.90;;;;;;5054974;28;20415;-80
2022/09/03 04:16:49;;;;;;;7.32;5.00;;;22.30;57.70;;;;;;5037404;28;20060;-81
2022/09/03 04:19:15;;;;;;;7.90;5.03;;;22.20;57.60;;;;;;5054775;28;20017;-80
2022/09/03 04:21:41;;;;;;;13.10;6.32;;;22.20;57.60;;;;;;5054950;28;20037;-81
2022/09/03 04:24:07;;;;;;;6.90;4.72;;;22.20;57.80;;;;;;5037105;28;20028;-81
2022/09/03 04:26:33;;;;;;;7.88;5.28;;;22.20;57.90;;;;;;5054664;28;20025;-81
2022/09/03 04:29:04;;;;;;;11.98;5.30;;;22.20;57.80;;;;;;5052725;28;20025;-81
2022/09/03 04:31:30;;;;;;;7.13;5.22;;;22.20;58.00;;;;;;5035011;28;20079;-81
2022/09/03 04:33:56;;;;;;;7.60;5.55;;;22.20;58.00;;;;;;5051976;28;20025;-81
2022/09/03 04:36:24;;;;;;;7.50;5.57;;;22.20;58.20;;;;;;5034034;28;20439;-82
2022/09/03 04:38:53;;;;;;;7.53;5.82;;;22.20;58.20;;;;;;5037010;28;20021;-80
2022/09/03 04:41:24;;;;;;;9.13;5.80;;;22.20;58.30;;;;;;5026950;28;20064;-81
2022/09/03 04:43:50;;;;;;;;;;;22.30;58.50;;;;;;5036918;28;20025;-82
2022/09/03 04:46:16;;;;;;;9.25;5.70;;;22.30;58.60;;;;;;5035881;28;19904;-83
2022/09/03 04:48:42;;;;;;;8.70;5.72;;;22.40;58.80;;;;;;5053513;28;20032;-82
2022/09/03 04:51:13;;;;;;;8.15;5.47;;;22.40;58.90;;;;;;5034085;28;20068;-80
2022/09/03 04:53:44;;;;;;;10.25;4.78;;;22.50;58.90;;;;;;5033047;28;20492;-80
2022/09/03 04:56:17;;;;;;;7.65;5.53;;;22.50;59.10;;;;;;5025327;28;20028;-80
2022/09/03 04:58:44;;;;;;;8.05;5.40;;;22.50;59.60;;;;;;5054074;28;20549;-83
2022/09/03 05:01:19;;;;;;;6.80;5.50;;;22.60;59.40;;;;;;5035789;28;20083;-83
2022/09/03 05:03:45;;;;;;;9.65;5.63;;;22.70;59.30;;;;;;5026195;28;20021;-82
2022/09/03 05:06:12;;;;;;;8.15;4.90;;;22.70;59.40;;;;;;5022081;28;20029;-83
2022/09/03 05:08:39;;;;;;;9.00;5.80;;;22.80;59.50;;;;;;5015856;28;20021;-82
2022/09/03 05:11:06;;;;;;;10.95;6.07;;;22.90;59.90;;;;;;5016594;28;20026;-81
2022/09/03 05:13:33;;;;;;;8.23;5.68;;;22.90;60.20;;;;;;5035619;28;20027;-80
2022/09/03 05:16:05;;;;;;;8.20;5.97;;;23.00;60.20;;;;;;5053365;28;20021;-82
2022/09/03 05:18:31;;;;;;;7.85;5.65;;;23.10;60.10;;;;;;5035332;28;20021;-79
2022/09/03 05:21:09;;;;;;;7.57;5.68;;;23.10;60.20;;;;;;5035686;28;20036;-80
2022/09/03 05:23:41;;;;;;;9.18;5.88;;;23.20;60.20;;;;;;5035660;28;20049;-80
2022/09/03 05:26:10;;;;;;;8.40;5.45;;;23.20;60.20;;;;;;5035324;28;20033;-79
2022/09/03 05:28:37;;;;;;;7.50;5.10;;;23.20;60.60;;;;;;5053121;28;20387;-80
2022/09/03 05:31:05;;;;;;;7.80;5.28;;;23.10;60.50;;;;;;5035368;28;20021;-80
2022/09/03 05:33:37;;;;;;;6.93;5.00;;;23.00;60.60;;;;;;5035539;28;20025;-81
2022/09/03 05:36:05;;;;;;;8.30;5.60;;;22.90;60.90;;;;;;5035215;28;20064;-80
2022/09/03 05:38:31;;;;;;;7.55;4.82;;;23.10;60.70;;;;;;5035162;28;20361;-78
2022/09/03 05:40:59;;;;;;;7.22;5.13;;;23.10;60.80;;;;;;5034942;28;20041;-79
2022/09/03 05:43:26;;;;;;;8.57;4.97;;;23.00;61.00;;;;;;5052954;28;20494;-80
2022/09/03 05:45:55;;;;;;;7.35;4.65;;;23.10;60.80;;;;;;5052975;28;20025;-80
2022/09/03 05:48:21;;;;;;;7.53;4.53;;;22.90;61.10;;;;;;5044711;28;20017;-80
2022/09/03 05:50:48;;;;;;;7.75;4.78;;;23.00;61.00;;;;;;5023690;28;20080;-79
2022/09/03 05:53:15;;;;;;;8.48;4.30;;;23.40;60.30;;;;;;5033287;28;20060;-79
2022/09/03 05:55:41;;;;;;;8.82;4.25;;;23.70;59.50;;;;;;5033030;28;20044;-80
2022/09/03 05:58:06;;;;;;;7.68;4.45;;;23.90;58.40;;;;;;5031798;28;20461;-80
2022/09/03 06:00:32;;;;;;;8.05;4.43;;;24.00;58.00;;;;;;5031361;28;20029;-80
2022/09/03 06:02:58;;;;;;;5.30;3.85;;;24.00;57.50;;;;;;5031873;28;20029;-80
2022/09/03 06:05:24;;;;;;;8.45;4.30;;;24.10;57.40;;;;;;5031943;28;20048;-79
2022/09/03 06:07:51;;;;;;;8.18;3.88;;;24.10;57.60;;;;;;5032962;28;20487;-81
2022/09/03 06:10:16;;;;;;;6.85;4.60;;;24.20;57.40;;;;;;5033296;28;20049;-80
2022/09/03 06:12:48;;;;;;;7.90;4.82;;;24.00;58.50;;;;;;5031516;28;20065;-79
2022/09/03 06:15:15;;;;;;;9.23;4.65;;;24.00;59.20;;;;;;5031630;28;20064;-80
2022/09/03 06:17:40;;;;;;;8.13;4.50;;;24.20;58.90;;;;;;5032439;28;20026;-80
2022/09/03 06:20:07;;;;;;;9.23;4.72;;;24.30;58.70;;;;;;5032462;28;20021;-79
2022/09/03 06:22:32;;;;;;;7.10;4.18;;;24.30;59.20;;;;;;5031926;28;20042;-80
2022/09/03 06:24:58;;;;;;;8.30;4.30;;;24.40;59.10;;;;;;4683571;28;10000125;-80
2022/09/03 06:27:24;;;;;;;6.55;4.65;;;24.50;58.90;;;;;;5029029;28;20044;-80
2022/09/03 06:29:49;;;;;;;9.52;5.00;;;24.30;59.20;;;;;;5028056;28;20032;-79
2022/09/03 06:32:15;;;;;;;7.18;4.32;;;24.50;58.90;;;;;;5029237;28;20025;-78
2022/09/03 06:34:41;;;;;;;7.25;4.43;;;24.60;58.30;;;;;;5029567;28;20072;-79
2022/09/03 06:37:07;;;;;;;10.57;4.38;;;24.70;58.90;;;;;;4681067;28;10000355;-78
2022/09/03 06:39:33;;;;;;;7.38;4.20;;;24.70;59.00;;;;;;5032089;28;20032;-80
2022/09/03 06:41:58;;;;;;;8.57;4.85;;;24.70;58.20;;;;;;5028210;28;20048;-80
2022/09/03 06:44:24;;;;;;;7.25;4.18;;;24.90;58.20;;;;;;5030116;28;20021;-84
2022/09/03 06:46:52;;;;;;;8.07;4.45;;;24.60;58.80;;;;;;5030454;28;20080;-80
2022/09/03 06:49:19;;;;;;;6.80;4.38;;;24.40;59.30;;;;;;5028941;28;20415;-80
2022/09/03 06:51:44;;;;;;;10.52;4.60;;;24.60;59.30;;;;;;5029001;28;20515;-80
2022/09/03 06:54:11;;;;;;;7.38;4.35;;;24.90;59.20;;;;;;5029783;28;20025;-81
2022/09/03 06:56:39;;;;;;;6.28;3.97;;;25.30;58.70;;;;;;5030219;28;20432;-80
2022/09/03 06:59:07;;;;;;;6.03;4.15;;;25.50;57.60;;;;;;5032203;28;20077;-80
2022/09/03 07:01:34;;;;;;;5.78;4.13;;;25.60;57.10;;;;;;5034225;28;20042;-80
2022/09/03 07:04:02;;;;;;;6.38;4.10;;;25.80;56.80;;;;;;5035340;28;20468;-81
2022/09/03 07:06:30;;;;;;;6.43;4.20;;;26.00;57.10;;;;;;5036135;28;20540;-80
2022/09/03 07:08:56;;;;;;;5.85;3.88;;;26.20;56.90;;;;;;5035134;28;20085;-84
2022/09/03 07:11:25;;;;;;;10.57;4.25;;;26.20;56.70;;;;;;5038266;28;20108;-86
2022/09/03 07:13:52;;;;;;;8.20;4.45;;;25.70;57.10;;;;;;5034959;28;20342;-80
2022/09/03 07:16:20;;;;;;;10.60;4.20;;;25.50;57.60;;;;;;5035249;28;20087;-81
2022/09/03 07:18:46;;;;;;;7.70;4.45;;;25.80;57.30;;;;;;5036194;28;20024;-86
2022/09/03 07:21:18;;;;;;;8.93;4.07;;;26.20;57.10;;;;;;5035945;28;20533;-81
2022/09/03 07:23:45;;;;;;;6.03;3.85;;;26.50;57.10;;;;;;5035238;28;20029;-79
2022/09/03 07:26:16;;;;;;;6.35;4.15;;;26.60;56.70;;;;;;5036310;28;20022;-80
2022/09/03 07:28:44;;;;;;;6.47;4.00;;;26.50;56.80;;;;;;5035984;28;20552;-81
2022/09/03 07:31:18;;;;;;;7.53;4.00;;;26.60;56.30;;;;;;5036090;28;20060;-83
2022/09/03 07:33:44;;;;;;;5.50;4.10;;;26.80;56.00;;;;;;5036120;28;20028;-83
2022/09/03 07:36:15;;;;;;;6.63;3.97;;;27.00;55.70;;;;;;5035631;28;20380;-81
2022/09/03 07:38:43;;;;;;;6.32;3.55;;;27.10;55.70;;;;;;5036089;28;20354;-84
2022/09/03 07:41:11;;;;;;;9.63;3.95;;;27.30;55.50;;;;;;5034679;28;20037;-84
2022/09/03 07:43:47;;;;;;;5.88;3.80;;;27.40;55.20;;;;;;5035576;28;20052;-81
2022/09/03 07:46:22;;;;;;;8.38;3.78;;;27.50;55.00;;;;;;5036167;28;20031;-89
2022/09/03 07:48:49;;;;;;;6.20;3.95;;;27.20;55.50;;;;;;5035486;28;20017;-82
2022/09/03 07:51:16;;;;;;;9.30;3.50;;;27.00;54.50;;;;;;5034384;28;20139;-82
2022/09/03 07:53:43;;;;;;;10.02;3.38;;;27.10;53.80;;;;;;5034168;28;20036;-82
2022/09/03 07:56:10;;;;;;;7.32;3.70;;;27.30;53.20;;;;;;5033989;28;20037;-90
2022/09/03 07:58:37;;;;;;;6.15;3.42;;;27.40;53.70;;;;;;5034548;28;20160;-82
2022/09/03 08:01:07;;;;;;;6.78;3.42;;;27.40;53.10;;;;;;5035304;28;20052;-81
2022/09/03 08:03:36;;;;;;;7.78;4.05;;;27.50;53.20;;;;;;5035381;28;20495;-81
2022/09/03 08:06:03;;;;;;;6.13;3.83;;;27.80;52.60;;;;;;5034128;28;20053;-82
2022/09/03 08:08:31;;;;;;;5.80;3.35;;;27.90;53.30;;;;;;5033236;28;20029;-82
2022/09/03 08:11:06;;;;;;;6.63;3.70;;;28.00;52.80;;;;;;5033711;28;20124;-83
2022/09/03 08:13:32;;;;;;;5.65;3.67;;;28.20;52.50;;;;;;5033968;28;20032;-82
2022/09/03 08:15:59;;;;;;;6.00;3.55;;;28.30;52.80;;;;;;5033763;28;20052;-82
2022/09/03 08:18:26;;;;;;;6.55;3.58;;;28.40;52.70;;;;;;5034456;28;20403;-83
2022/09/03 08:20:51;;;;;;;5.93;3.50;;;28.60;53.10;;;;;;5033809;28;20041;-82
2022/09/03 08:23:17;;;;;;;6.20;3.42;;;28.70;51.30;;;;;;5033773;28;20022;-81
2022/09/03 08:25:43;;;;;;;7.45;3.70;;;28.80;51.00;;;;;;5033593;28;20037;-86
2022/09/03 08:28:09;;;;;;;5.50;3.70;;;28.90;52.40;;;;;;5035352;28;20033;-89
2022/09/03 08:30:35;;;;;;;6.75;3.63;;;29.10;51.80;;;;;;5034738;28;20022;-88
2022/09/03 08:33:03;;;;;;;5.63;3.10;;;28.90;51.50;;;;;;5033860;28;20419;-94
2022/09/03 08:35:33;;;;;;;6.53;3.30;;;28.90;49.50;;;;;;3988946;28;10000696;-88
2022/09/03 08:38:04;;;;;;;6.03;3.38;;;29.00;51.20;;;;;;5032304;28;20025;-83
2022/09/03 08:40:32;;;;;;;4.65;2.92;;;29.30;50.90;;;;;;5034745;28;20029;-85
2022/09/03 08:43:07;;;;;;;5.38;2.95;;;29.50;50.30;;;;;;5034976;28;20037;-84
2022/09/03 08:45:36;;;;;;;7.40;2.85;;;29.60;49.40;;;;;;5033394;28;20084;-87
2022/09/03 08:48:22;;;;;;;5.10;2.95;;;29.60;50.40;;;;;;5034871;28;20037;-88
2022/09/03 08:50:54;;;;;;;6.97;3.08;;;29.70;50.00;;;;;;5033168;28;20106;-88
2022/09/03 08:53:28;;;;;;;7.57;2.97;;;29.90;50.40;;;;;;5034703;28;20078;-92
2022/09/03 08:56:06;;;;;;;6.45;3.10;;;29.70;50.50;;;;;;5033302;28;20026;-79
2022/09/03 08:58:34;;;;;;;7.93;3.20;;;29.50;49.70;;;;;;5033220;28;20415;-90
2022/09/03 09:01:11;;;;;;;6.85;3.45;;;29.50;49.90;;;;;;5033312;28;20033;-81
2022/09/03 09:03:46;;;;;;;4.90;2.92;;;29.60;49.90;;;;;;5034642;28;20014;-81
2022/09/03 09:06:24;;;;;;;5.47;2.90;;;29.70;48.50;;;;;;5034162;28;20037;-86
2022/09/03 09:09:06;;;;;;;6.25;3.13;;;29.70;49.00;;;;;;5032915;28;20022;-82
2022/09/03 09:12:09;;;;;;;7.80;3.25;;;29.60;49.30;;;;;;5034169;28;20075;-83
2022/09/03 09:15:02;;;;;;;4.60;2.80;;;29.60;50.50;;;;;;5034422;28;20025;-82
2022/09/03 09:17:31;;;;;;;6.55;3.28;;;29.60;49.00;;;;;;5033049;28;20032;-87
2022/09/03 09:20:25;;;;;;;5.18;3.10;;;29.70;48.40;;;;;;5033103;28;20388;-86
2022/09/03 09:22:56;;;;;;;5.60;3.10;;;29.60;48.60;;;;;;5034194;28;20096;-82
2022/09/03 09:25:25;;;;;;;5.70;2.63;;;29.70;50.00;;;;;;5032559;28;20033;-83
2022/09/03 09:28:02;;;;;;;6.10;3.00;;;29.90;49.60;;;;;;5033412;28;20596;-86
2022/09/03 09:30:30;;;;;;;6.22;2.92;;;30.10;49.90;;;;;;5033781;28;20461;-82
2022/09/03 09:32:56;;;;;;;6.03;2.95;;;30.10;48.50;;;;;;5032834;28;20030;-90
2022/09/03 09:35:22;;;;;;;4.55;2.90;;;30.40;49.00;;;;;;5032465;28;20048;-89
2022/09/03 09:37:59;;;;;;;4.53;2.78;;;30.50;48.30;;;;;;5032586;28;20026;-81
2022/09/03 09:40:34;;;;;;;6.50;3.10;;;30.70;48.10;;;;;;5033067;28;20476;-82
2022/09/03 09:43:10;;;;;;;5.45;3.00;;;30.70;47.40;;;;;;5034004;28;20073;-83
2022/09/03 09:45:44;;;;;;;5.20;2.72;;;30.20;47.70;;;;;;5029807;28;20515;-82
2022/09/03 09:48:33;;;;;;;4.95;2.63;;;30.30;49.00;;;;;;5015501;28;20116;-83
2022/09/03 09:51:12;;;;;;;5.35;2.90;;;30.60;48.20;;;;;;5026726;28;20045;-81
2022/09/03 09:53:39;;;;;;;5.75;2.83;;;30.70;47.10;;;;;;5033628;28;20441;-82
2022/09/03 09:56:05;;;;;;;5.45;2.60;;;30.90;48.30;;;;;;5015276;28;20099;-84
2022/09/03 09:58:32;;;;;;;5.20;2.63;;;31.10;47.40;;;;;;5015934;28;20053;-88
2022/09/03 10:01:12;;;;;;;10.40;9.45;;;31.30;47.60;;;;;;5016007;28;20033;-81
2022/09/03 10:03:54;;;;;;;6.93;2.42;;;31.60;46.90;;;;;;5033664;28;20021;-79
2022/09/03 10:09:13;;;;;;;5.05;2.65;;;31.90;46.50;;;;;;5033599;28;20086;-83
2022/09/03 10:11:44;;;;;;;5.93;2.70;;;32.20;46.10;;;;;;5033484;28;20033;-91
2022/09/03 10:14:31;;;;;;;5.07;2.42;;;33.00;44.90;;;;;;5016578;28;20025;-86
2022/09/03 10:17:10;;;;;;;6.18;2.40;;;33.50;45.60;;;;;;5041548;28;20048;-85
2022/09/03 10:20:25;;;;;;;4.53;2.50;;;33.40;45.10;;;;;;5032781;28;20029;-84
2022/09/03 10:22:41;;;;;;;4.18;2.40;;;33.30;45.60;;;;;;5053166;28;20132;-84
2022/09/03 10:25:08;;;;;;;4.53;2.50;;;33.30;45.40;;;;;;5053426;28;20040;-90
2022/09/03 10:27:36;;;;;;;8.43;2.60;;;33.10;45.00;;;;;;5035366;28;20078;-80
2022/09/03 10:30:02;;;;;;;5.18;2.70;;;32.80;45.60;;;;;;5035451;28;20021;-92
2022/09/03 10:32:43;;;;;;;4.45;2.63;;;32.70;45.20;;;;;;5053719;28;20032;-86
2022/09/03 10:35:18;;;;;;;;;;;32.40;45.20;;;;;;5039538;28;20039;-86
2022/09/03 10:38:08;;;;;;;6.72;2.63;;;32.10;45.40;;;;;;5057412;28;19931;-86
2022/09/03 10:40:40;;;;;;;6.25;3.20;;;31.70;46.40;;;;;;5056539;28;20039;-80
2022/09/03 10:43:36;;;;;;;6.18;3.20;;;31.20;47.50;;;;;;5057284;28;20028;-79
2022/09/03 10:46:06;;;;;;;4.82;3.00;;;31.00;48.40;;;;;;5056811;28;20017;-89
2022/09/03 10:48:51;;;;;;;4.80;2.97;;;31.00;48.70;;;;;;5039176;28;20097;-80
2022/09/03 10:51:40;;;;;;;6.45;2.80;;;30.70;48.90;;;;;;5035373;28;20045;-88
2022/09/03 10:54:12;;;;;;;6.43;3.00;;;30.50;48.80;;;;;;5057147;28;20048;-92
2022/09/03 10:56:58;;;;;;;6.68;2.60;;;30.90;49.80;;;;;;5057454;28;20013;-87
2022/09/03 10:59:38;;;;;;;6.55;2.90;;;31.50;48.50;;;;;;5057020;28;20033;-89
2022/09/03 11:02:22;;;;;;;5.00;3.00;;;31.50;48.40;;;;;;5056334;28;20033;-86
2022/09/03 11:05:11;;;;;;;8.50;2.90;;;31.30;48.50;;;;;;5057565;28;20052;-85
2022/09/03 11:07:46;;;;;;;7.18;3.00;;;30.90;49.90;;;;;;5040465;28;20507;-86
2022/09/03 11:10:31;;;;;;;5.00;2.83;;;30.30;48.70;;;;;;5056706;28;20047;-83
2022/09/03 11:13:20;;;;;;;6.68;2.97;;;30.10;49.40;;;;;;5039254;28;20074;-88
2022/09/03 11:16:05;;;;;;;8.13;3.13;;;30.20;48.10;;;;;;5039388;28;20082;-81
2022/09/03 11:18:37;;;;;;;5.40;3.03;;;30.40;47.80;;;;;;5038112;28;20451;-80
2022/09/03 11:21:10;;;;;;;6.10;3.05;;;30.60;49.10;;;;;;5038103;28;20086;-82
2022/09/03 11:23:40;;;;;;;5.25;2.88;;;30.60;48.60;;;;;;5037877;28;20049;-80
2022/09/03 11:26:11;;;;;;;6.60;2.83;;;30.80;48.90;;;;;;5057273;28;20033;-80
2022/09/03 11:28:52;;;;;;;4.72;3.03;;;30.60;48.20;;;;;;5038988;28;20107;-85
2022/09/03 11:31:30;;;;;;;6.30;3.00;;;30.70;48.90;;;;;;5056027;28;20059;-83
2022/09/03 11:34:26;;;;;;;6.97;2.90;;;30.60;48.10;;;;;;5038186;28;20028;-85
2022/09/03 11:37:03;;;;;;;6.68;3.13;;;30.60;47.30;;;;;;5036177;28;20025;-84
2022/09/03 11:39:34;;;;;;;6.28;3.00;;;30.60;47.70;;;;;;5027822;28;20384;-85
2022/09/03 11:42:25;;;;;;;5.95;3.17;;;30.80;47.80;;;;;;5035622;28;20060;-83
2022/09/03 11:44:51;;;;;;;4.82;2.75;;;30.80;47.40;;;;;;5053884;28;20025;-84
2022/09/03 11:47:45;;;;;;;4.80;3.25;;;30.70;48.10;;;;;;5046501;28;20024;-89
2022/09/03 11:50:32;;;;;;;6.30;2.97;;;30.50;48.00;;;;;;5054952;28;20048;-88
2022/09/03 11:53:33;;;;;;;6.50;2.95;;;30.40;47.90;;;;;;5055275;28;20029;-83
2022/09/03 11:56:11;;;;;;;8.43;3.33;;;30.60;49.10;;;;;;5037451;28;20044;-83
2022/09/03 11:58:41;;;;;;;6.15;3.35;;;30.80;49.50;;;;;;5055686;28;20441;-87
2022/09/03 12:01:13;;;;;;;5.88;3.38;;;30.60;48.70;;;;;;5057861;28;20115;-82
2022/09/03 12:04:03;;;;;;;11.27;3.38;;;30.50;50.00;;;;;;5055703;28;20021;-88
2022/09/03 12:06:32;;;;;;;5.30;3.22;;;30.50;49.30;;;;;;5038137;28;20040;-90
2022/09/03 12:08:57;;;;;;;7.00;2.90;;;30.60;48.90;;;;;;5055567;28;20431;-95
2022/09/03 12:11:51;;;;;;;8.02;3.05;;;30.40;49.90;;;;;;5037890;28;20032;-86
2022/09/03 12:14:28;;;;;;;4.85;3.25;;;30.10;49.20;;;;;;5058189;28;20036;-80
2022/09/03 12:17:03;;;;;;;7.78;3.78;;;30.00;49.90;;;;;;5038322;28;20025;-86
2022/09/03 12:19:53;;;;;;;4.97;2.83;;;30.10;49.10;;;;;;5055918;28;20051;-82
2022/09/03 12:22:21;;;;;;;5.03;3.10;;;30.20;48.10;;;;;;5037882;28;20059;-83
2022/09/03 12:24:47;;;;;;;6.22;3.30;;;30.00;49.20;;;;;;5056008;28;20025;-94
2022/09/03 12:27:24;;;;;;;5.78;3.15;;;29.80;49.60;;;;;;5038668;28;20098;-86
2022/09/03 12:30:02;;;;;;;8.30;3.30;;;29.80;49.10;;;;;;5037275;28;20040;-89
2022/09/03 12:32:31;;;;;;;7.47;3.50;;;29.60;49.30;;;;;;5037961;28;20029;-82
2022/09/03 12:34:57;;;;;;;8.88;3.45;;;29.60;49.10;;;;;;5054405;28;20100;-81
2022/09/03 12:37:25;;;;;;;5.25;3.05;;;29.80;49.60;;;;;;5039008;28;20031;-80
2022/09/03 12:39:53;;;;;;;4.57;3.05;;;30.00;49.40;;;;;;5038112;28;20021;-90
2022/09/03 12:42:27;;;;;;;5.35;3.20;;;29.90;50.20;;;;;;5054759;28;20029;-80
2022/09/03 12:44:53;;;;;;;6.28;3.00;;;30.10;49.80;;;;;;5038930;28;20380;-89
2022/09/03 12:47:22;;;;;;;5.07;3.38;;;30.30;48.30;;;;;;4353577;28;10000757;-81
2022/09/03 12:49:55;;;;;;;5.85;3.13;;;30.40;47.90;;;;;;5033053;28;20060;-90
2022/09/03 12:52:33;;;;;;;6.53;3.00;;;30.50;48.50;;;;;;5053251;28;20586;-79
2022/09/03 12:55:37;;;;;;;7.18;3.30;;;30.50;47.80;;;;;;5032136;28;20048;-79
2022/09/03 12:58:06;;;;;;;5.85;3.10;;;30.60;48.30;;;;;;5050042;28;20056;-79
2022/09/03 13:00:35;;;;;;;6.45;2.90;;;30.70;48.30;;;;;;5050772;28;20039;-82
2022/09/03 13:03:03;;;;;;;5.00;3.10;;;30.80;47.60;;;;;;5032599;28;20403;-82
2022/09/03 13:05:46;;;;;;;4.80;3.10;;;30.90;47.30;;;;;;5032841;28;20025;-84
2022/09/03 13:08:28;;;;;;;5.70;2.92;;;30.90;47.30;;;;;;5033030;28;20033;-79
2022/09/03 13:10:57;;;;;;;4.72;2.83;;;31.10;46.90;;;;;;5032727;28;20028;-81
2022/09/03 13:13:31;;;;;;;6.15;2.92;;;31.30;47.80;;;;;;5032777;28;20029;-83
2022/09/03 13:16:34;;;;;;;4.20;2.65;;;31.30;46.40;;;;;;5032489;28;20039;-85
2022/09/03 13:19:06;;;;;;;5.00;2.45;;;31.40;46.30;;;;;;5032610;28;20029;-82